Time;durP1;ratioP1;P1;durP2;ratioP2;P2;SDS_P1;SDS_P2;PMS_P1;PMS_P2;Temp;Humidity;BMP_temperature;BMP_pressure;BME280_temperature;BME280_humidity;BME280_pressure;Samples;Min_cycle;Max_cycle;Signal;HPM_P1;HPM_P2
2023/05/25 00:00:42;;;;;;;7.43;6.82;;;;;;;15.74;71.33;94851.75;5076346;28;20189;-63
2023/05/25 00:03:11;;;;;;;8.00;7.15;;;;;;;15.74;71.32;94846.19;5076731;28;20278;-63
2023/05/25 00:05:39;;;;;;;7.38;6.68;;;;;;;15.73;71.27;94850.19;5076549;28;20205;-63
2023/05/25 00:08:09;;;;;;;7.22;6.50;;;;;;;15.72;71.50;94858.88;5076482;28;20196;-62
2023/05/25 00:10:39;;;;;;;7.85;7.00;;;;;;;15.67;71.73;94862.84;5075773;28;20201;-62
2023/05/25 00:13:09;;;;;;;7.45;6.78;;;;;;;15.55;71.93;94869.53;5075639;28;20205;-62
2023/05/25 00:15:38;;;;;;;7.53;6.82;;;;;;;15.35;72.20;94869.00;5076419;28;20200;-63
2023/05/25 00:18:12;;;;;;;8.23;6.60;;;;;;;15.14;72.96;94875.25;5076386;28;20214;-63
2023/05/25 00:20:44;;;;;;;7.07;6.38;;;;;;;15.10;73.69;94866.06;5076177;28;20244;-63
2023/05/25 00:23:13;;;;;;;7.28;6.68;;;;;;;15.13;73.82;94864.50;5075711;28;20197;-63
2023/05/25 00:25:46;;;;;;;7.80;7.10;;;;;;;15.15;73.41;94862.16;5076044;28;20197;-63
2023/05/25 00:28:14;;;;;;;7.80;7.03;;;;;;;15.16;73.69;94869.28;5076143;28;20189;-63
2023/05/25 00:30:49;;;;;;;8.27;7.47;;;;;;;15.07;74.45;94877.97;5075584;28;20258;-63
2023/05/25 00:33:19;;;;;;;7.38;6.78;;;;;;;15.00;74.44;94863.25;5076324;28;20209;-63
2023/05/25 00:35:51;;;;;;;8.10;7.30;;;;;;;15.06;74.35;94872.78;5075982;28;20204;-63
2023/05/25 00:38:20;;;;;;;7.43;6.72;;;;;;;15.09;74.34;94869.25;5075637;28;20197;-63
2023/05/25 00:40:48;;;;;;;7.72;7.05;;;;;;;15.00;74.60;94872.38;5074975;28;20258;-63
2023/05/25 00:43:16;;;;;;;6.97;6.35;;;;;;;14.98;74.93;94885.84;5075673;28;20255;-63
2023/05/25 00:45:45;;;;;;;7.25;6.55;;;;;;;14.96;74.63;94877.13;5075017;28;20185;-63
2023/05/25 00:48:13;;;;;;;8.10;7.30;;;;;;;14.98;75.18;94871.94;5074846;28;20251;-63
2023/05/25 00:50:47;;;;;;;7.65;7.03;;;;;;;14.98;74.89;94871.16;5075812;28;20217;-63
2023/05/25 00:53:15;;;;;;;8.48;7.50;;;;;;;14.98;74.71;94871.94;5074894;28;20192;-63
2023/05/25 00:55:46;;;;;;;7.53;6.75;;;;;;;14.98;74.74;94874.72;5074748;28;20255;-63
2023/05/25 00:58:20;;;;;;;7.82;7.13;;;;;;;14.97;74.97;94878.69;5075283;28;20189;-63
2023/05/25 01:00:49;;;;;;;9.50;6.95;;;;;;;14.98;74.71;94885.03;5074799;28;20575;-63
2023/05/25 01:03:26;;;;;;;8.10;7.28;;;;;;;14.95;74.62;94881.06;5074934;28;20185;-62
2023/05/25 01:06:05;;;;;;;7.72;6.78;;;;;;;14.93;75.17;94881.44;5074724;28;20201;-62
2023/05/25 01:08:36;;;;;;;9.02;7.05;;;;;;;14.84;75.07;94880.97;5074581;28;20197;-62
2023/05/25 01:11:06;;;;;;;7.57;6.88;;;;;;;14.66;75.16;94889.16;5075462;28;20207;-62
2023/05/25 01:13:36;;;;;;;7.30;6.60;;;;;;;14.50;74.86;94894.16;5075388;28;20200;-62
2023/05/25 01:16:08;;;;;;;7.53;6.82;;;;;;;14.43;75.27;94892.09;5075157;28;20204;-62
2023/05/25 01:18:36;;;;;;;7.88;6.47;;;;;;;14.47;75.89;94891.34;5075124;28;20246;-62
2023/05/25 01:21:13;;;;;;;7.70;6.90;;;;;;;14.52;75.97;94885.44;5074405;28;20204;-62
2023/05/25 01:23:47;;;;;;;8.27;7.13;;;;;;;14.56;76.05;94872.41;5074626;28;20228;-62
2023/05/25 01:26:16;;;;;;;7.53;6.82;;;;;;;14.57;76.46;94868.47;5074288;28;20204;-62
2023/05/25 01:28:50;;;;;;;7.45;6.78;;;;;;;14.60;76.23;94873.25;5075264;28;20193;-62
2023/05/25 01:31:24;;;;;;;8.85;7.35;;;;;;;14.50;75.88;94871.19;5075103;28;20267;-62
2023/05/25 01:33:51;;;;;;;7.80;7.15;;;;;;;14.34;75.77;94866.66;5074333;28;20216;-62
2023/05/25 01:36:56;;;;;;;7.20;6.50;;;;;;;14.22;76.08;94869.69;5074222;28;20312;-62
2023/05/25 01:40:01;;;;;;;7.70;6.55;;;;;;;14.21;76.78;94863.34;5075555;28;20192;-62
2023/05/25 01:43:05;;;;;;;7.63;6.95;;;;;;;14.29;76.64;94864.22;5075019;28;20192;-62
2023/05/25 01:46:11;;;;;;;10.77;7.50;;;;;;;14.30;76.34;94856.69;5074412;28;20570;-62
2023/05/25 01:49:16;;;;;;;7.80;7.10;;;;;;;14.32;76.45;94855.13;5074807;28;20257;-62
2023/05/25 01:52:22;;;;;;;8.23;6.72;;;;;;;14.33;76.22;94853.94;5074018;28;20666;-62
2023/05/25 01:55:26;;;;;;;8.85;7.00;;;;;;;14.37;76.53;94851.19;5074490;28;20215;-64
2023/05/25 01:58:31;;;;;;;7.80;7.00;;;;;;;14.38;76.19;94848.06;5073780;28;20270;-64
2023/05/25 02:01:37;;;;;;;7.43;6.60;;;;;;;14.34;76.59;94858.34;5074416;28;20197;-64
2023/05/25 02:04:41;;;;;;;7.63;6.80;;;;;;;14.24;77.09;94852.69;5073670;28;20196;-64
2023/05/25 02:07:45;;;;;;;7.50;6.70;;;;;;;14.19;77.14;94864.91;5076150;28;20204;-64
2023/05/25 02:10:51;;;;;;;7.60;6.90;;;;;;;14.20;77.30;94858.97;5078786;28;20196;-64
2023/05/25 02:13:55;;;;;;;7.93;7.07;;;;;;;14.23;77.51;94870.47;5077773;28;20208;-64
2023/05/25 02:17:04;;;;;;;8.63;7.60;;;;;;;14.26;77.09;94878.03;5078478;28;20212;-64
2023/05/25 02:20:09;;;;;;;8.20;7.35;;;;;;;14.30;77.57;94876.09;5078337;28;20331;-65
2023/05/25 02:23:17;;;;;;;9.20;8.20;;;;;;;14.30;77.35;94878.88;5077840;28;20196;-64
2023/05/25 02:26:23;;;;;;;10.85;7.68;;;;;;;14.18;77.08;94885.50;5077643;28;20201;-65
2023/05/25 02:29:29;;;;;;;9.98;8.55;;;;;;;14.08;77.46;94888.94;5078378;28;20205;-64
2023/05/25 02:32:34;;;;;;;13.15;7.80;;;;;;;14.07;77.60;94890.94;5078364;28;20185;-64
2023/05/25 02:35:08;;;;;;;10.55;8.10;;;;;;;14.02;77.66;94896.03;5077196;28;20212;-64
2023/05/25 02:37:36;;;;;;;8.20;7.22;;;;;;;13.87;77.39;94895.03;5077540;28;20227;-64
2023/05/25 02:40:06;;;;;;;8.88;8.07;;;;;;;13.70;77.34;94897.25;5078302;28;20193;-65
2023/05/25 02:42:33;;;;;;;8.20;7.40;;;;;;;13.67;78.08;94902.75;5077434;28;20224;-64
2023/05/25 02:45:02;;;;;;;10.07;8.18;;;;;;;13.72;78.54;94905.16;5077780;28;20204;-64
2023/05/25 02:47:30;;;;;;;8.35;7.55;;;;;;;13.81;78.21;94907.66;5078522;28;20235;-64
2023/05/25 02:49:58;;;;;;;8.82;8.00;;;;;;;13.83;78.06;94908.88;5077128;28;20201;-65
2023/05/25 02:52:31;;;;;;;9.20;7.85;;;;;;;13.84;77.71;94916.03;5078027;28;20196;-64
2023/05/25 02:54:59;;;;;;;8.32;7.20;;;;;;;13.83;78.31;94914.41;5077062;28;20185;-65
2023/05/25 02:57:27;;;;;;;8.40;7.68;;;;;;;13.86;78.74;94913.66;5078183;28;20239;-65
2023/05/25 02:59:58;;;;;;;8.30;7.25;;;;;;;13.86;78.72;94912.88;5077131;28;20192;-65
2023/05/25 03:02:27;;;;;;;9.77;7.18;;;;;;;13.78;78.66;94911.19;5076913;28;20231;-65
2023/05/25 03:04:58;;;;;;;8.88;7.53;;;;;;;13.76;78.13;94919.06;5077699;28;20619;-64
2023/05/25 03:07:31;;;;;;;8.38;7.15;;;;;;;13.77;78.10;94915.16;5077770;28;20531;-64
2023/05/25 03:09:59;;;;;;;9.57;8.32;;;;;;;13.76;78.13;94916.28;5077406;28;20190;-64
2023/05/25 03:12:27;;;;;;;10.50;7.18;;;;;;;13.69;78.08;94917.81;5076746;28;20504;-64
2023/05/25 03:14:57;;;;;;;8.55;7.45;;;;;;;13.69;78.23;94928.91;5077632;28;20262;-64
2023/05/25 03:17:24;;;;;;;9.98;7.70;;;;;;;13.68;77.89;94916.22;5076452;28;20225;-64
2023/05/25 03:19:58;;;;;;;8.63;7.72;;;;;;;13.72;77.75;94914.31;5075029;28;20233;-65
2023/05/25 03:22:28;;;;;;;8.05;7.45;;;;;;;13.75;78.02;94923.81;5077334;28;20193;-64
2023/05/25 03:24:59;;;;;;;9.23;8.10;;;;;;;13.72;78.06;94921.78;5076596;28;20185;-64
2023/05/25 03:27:27;;;;;;;8.98;8.02;;;;;;;13.77;78.31;94923.47;5077507;28;20189;-64
2023/05/25 03:29:57;;;;;;;8.95;8.05;;;;;;;13.77;77.90;94927.03;5077009;28;20181;-64
2023/05/25 03:32:26;;;;;;;10.20;7.60;;;;;;;13.78;77.95;94928.63;5077210;28;20185;-64
2023/05/25 03:34:54;;;;;;;8.75;7.95;;;;;;;13.75;78.16;94921.03;5077175;28;20201;-64
2023/05/25 03:37:23;;;;;;;9.15;8.25;;;;;;;13.78;78.02;94930.59;5076179;28;20267;-64
2023/05/25 03:39:54;;;;;;;11.10;8.90;;;;;;;13.73;78.20;94931.72;5076287;28;20224;-64
2023/05/25 03:42:25;;;;;;;14.07;8.57;;;;;;;13.68;78.32;94927.28;5076862;28;20197;-64
2023/05/25 03:44:53;;;;;;;9.45;8.25;;;;;;;13.68;78.64;94932.84;5075818;28;20629;-64
2023/05/25 03:47:23;;;;;;;11.50;8.80;;;;;;;13.72;78.83;94938.44;5076632;28;20197;-64
2023/05/25 03:49:52;;;;;;;11.98;8.80;;;;;;;13.74;79.00;94933.31;5076140;28;20209;-66
2023/05/25 03:52:21;;;;;;;10.43;8.68;;;;;;;13.76;78.95;94932.94;5075925;28;20189;-62
2023/05/25 03:54:51;;;;;;;11.27;8.07;;;;;;;13.76;79.19;94938.47;5076695;28;20205;-63
2023/05/25 03:57:18;;;;;;;10.07;8.50;;;;;;;13.81;79.38;94938.94;5077116;28;20215;-63
2023/05/25 03:59:47;;;;;;;9.63;8.00;;;;;;;13.89;79.23;94945.38;5077103;28;20197;-62
2023/05/25 04:02:15;;;;;;;13.05;8.90;;;;;;;13.94;79.00;94945.84;5076740;28;20229;-62
2023/05/25 04:04:45;;;;;;;12.88;8.95;;;;;;;13.95;78.98;94944.69;5076180;28;20544;-63
2023/05/25 04:07:15;;;;;;;11.40;8.82;;;;;;;13.95;78.93;94943.88;5075452;28;20193;-62
2023/05/25 04:09:45;;;;;;;9.20;8.20;;;;;;;13.97;79.25;94947.84;5076282;28;20192;-62
2023/05/25 04:12:16;;;;;;;10.52;9.02;;;;;;;14.00;79.26;94946.31;5075737;28;20205;-63
2023/05/25 04:14:51;;;;;;;11.85;8.70;;;;;;;14.05;79.77;94950.72;5077011;28;20177;-65
2023/05/25 04:17:23;;;;;;;12.07;9.48;;;;;;;14.11;79.65;94958.31;5075176;28;20220;-63
2023/05/25 04:19:53;;;;;;;10.95;8.85;;;;;;;14.15;79.77;94955.59;5075044;28;20237;-63
2023/05/25 04:22:20;;;;;;;9.65;8.65;;;;;;;14.24;79.49;94958.88;5076285;28;20185;-63
2023/05/25 04:24:48;;;;;;;15.10;9.07;;;;;;;14.31;79.49;94955.41;5076372;28;20195;-63
2023/05/25 04:27:19;;;;;;;13.15;9.88;;;;;;;14.40;79.59;94964.19;5076206;28;20192;-63
2023/05/25 04:29:46;;;;;;;11.35;9.57;;;;;;;14.44;79.41;94965.81;5075087;28;20678;-63
2023/05/25 04:32:16;;;;;;;11.35;8.90;;;;;;;14.49;79.42;94964.69;5075857;28;20200;-63
2023/05/25 04:34:50;;;;;;;10.10;8.85;;;;;;;14.55;79.07;94976.28;5075781;28;20205;-63
2023/05/25 04:37:17;;;;;;;9.95;8.95;;;;;;;14.59;79.12;94974.34;5075375;28;20217;-64
2023/05/25 04:39:48;;;;;;;10.20;9.10;;;;;;;14.63;78.47;94977.94;5075277;28;20193;-64
2023/05/25 04:42:23;;;;;;;14.60;9.32;;;;;;;14.70;78.90;94975.22;5075887;28;20193;-63
2023/05/25 04:44:54;;;;;;;9.38;8.35;;;;;;;14.75;78.10;94974.91;5075144;28;20539;-63
2023/05/25 04:47:23;;;;;;;11.95;8.13;;;;;;;14.81;77.71;94978.13;5074960;28;20593;-63
2023/05/25 04:49:53;;;;;;;12.70;9.23;;;;;;;14.87;77.69;94979.38;5075857;28;20185;-63
2023/05/25 04:52:21;;;;;;;11.80;8.77;;;;;;;14.91;77.62;94980.19;5075740;28;20227;-67
2023/05/25 04:54:53;;;;;;;10.40;8.75;;;;;;;14.96;77.56;94976.25;5075924;28;20189;-63
2023/05/25 04:57:30;;;;;;;9.40;8.60;;;;;;;15.00;77.24;94971.56;5075716;28;20197;-63
2023/05/25 04:59:57;;;;;;;10.82;8.95;;;;;;;15.04;77.50;94966.84;5074896;28;20193;-63
2023/05/25 05:02:25;;;;;;;10.30;8.80;;;;;;;15.06;77.08;94964.44;5075299;28;20211;-63
2023/05/25 05:04:53;;;;;;;9.35;8.48;;;;;;;15.08;77.03;94962.09;5075521;28;20189;-63
2023/05/25 05:07:21;;;;;;;9.43;8.52;;;;;;;15.08;76.49;94957.34;5074773;28;20197;-62
2023/05/25 05:09:49;;;;;;;9.63;8.48;;;;;;;15.10;75.50;94965.28;5075207;28;20193;-63
2023/05/25 05:12:20;;;;;;;8.77;7.88;;;;;;;15.13;74.96;94964.50;5075470;28;20185;-63
2023/05/25 05:14:54;;;;;;;8.82;8.02;;;;;;;15.16;75.18;94961.75;5075429;28;20196;-63
2023/05/25 05:17:25;;;;;;;8.80;8.00;;;;;;;15.21;75.02;94963.38;5074812;28;20220;-63
2023/05/25 05:19:52;;;;;;;9.40;7.70;;;;;;;15.23;75.28;94969.34;5074554;28;20301;-63
2023/05/25 05:22:19;;;;;;;9.63;8.57;;;;;;;15.25;75.32;94961.44;5074431;28;20208;-63
2023/05/25 05:24:47;;;;;;;9.00;7.93;;;;;;;15.28;75.40;94960.66;5074965;28;20226;-63
2023/05/25 05:27:16;;;;;;;10.65;8.88;;;;;;;15.31;75.87;94968.22;5074654;28;20201;-63
2023/05/25 05:29:43;;;;;;;10.55;9.50;;;;;;;15.35;75.35;94971.81;5075451;28;20599;-63
2023/05/25 05:32:16;;;;;;;11.45;9.07;;;;;;;15.41;75.54;94969.50;5075209;28;20666;-63
2023/05/25 05:34:44;;;;;;;12.50;10.10;;;;;;;15.46;75.90;94973.88;5075434;28;20227;-63
2023/05/25 05:37:12;;;;;;;10.68;9.55;;;;;;;15.52;74.92;94978.69;5074515;28;20193;-63
2023/05/25 05:39:45;;;;;;;11.90;9.90;;;;;;;15.58;74.79;94985.50;5074407;28;20193;-63
2023/05/25 05:42:15;;;;;;;11.30;10.18;;;;;;;15.66;75.44;94985.56;5073685;28;20254;-63
2023/05/25 05:44:43;;;;;;;11.25;10.10;;;;;;;15.73;75.32;94980.84;5074448;28;20216;-63
2023/05/25 05:47:15;;;;;;;11.18;9.95;;;;;;;15.83;75.22;94987.66;5074657;28;20533;-63
2023/05/25 05:49:46;;;;;;;9.93;8.82;;;;;;;15.89;75.38;94981.31;5075100;28;20215;-63
2023/05/25 05:52:14;;;;;;;8.93;8.02;;;;;;;15.95;75.28;94983.75;5074023;28;20204;-63
2023/05/25 05:54:45;;;;;;;9.93;7.90;;;;;;;15.98;75.35;94989.34;5075007;28;20185;-63
2023/05/25 05:57:11;;;;;;;8.82;7.97;;;;;;;16.01;74.95;94983.00;5074098;28;20193;-63
2023/05/25 05:59:39;;;;;;;12.77;8.65;;;;;;;16.07;73.91;94988.97;5073670;28;20221;-63
2023/05/25 06:02:09;;;;;;;10.60;8.40;;;;;;;16.13;74.13;94981.84;5074713;28;20601;-63
2023/05/25 06:04:39;;;;;;;9.68;8.30;;;;;;;16.20;73.19;94989.44;5074122;28;20287;-63
2023/05/25 06:07:07;;;;;;;10.82;8.60;;;;;;;16.27;73.23;94989.47;5074563;28;20196;-63
2023/05/25 06:09:35;;;;;;;11.15;10.05;;;;;;;16.33;73.23;94991.47;5074947;28;20250;-63
2023/05/25 06:12:03;;;;;;;10.75;9.43;;;;;;;16.40;73.42;94987.13;5058090;28;20265;-63
2023/05/25 06:14:34;;;;;;;10.77;9.77;;;;;;;16.47;73.44;94985.16;5075110;28;20246;-63
2023/05/25 06:17:04;;;;;;;11.13;9.57;;;;;;;16.54;73.96;94982.38;5074214;28;20201;-63
2023/05/25 06:19:32;;;;;;;10.43;9.40;;;;;;;16.59;73.33;94992.34;5074715;28;20244;-63
2023/05/25 06:22:05;;;;;;;10.70;9.07;;;;;;;16.65;73.73;94990.78;5074554;28;20185;-63
2023/05/25 06:24:33;;;;;;;11.30;8.50;;;;;;;16.71;73.54;94992.00;5074511;28;20260;-63
2023/05/25 06:27:02;;;;;;;10.20;9.20;;;;;;;16.77;73.12;94992.41;5074474;28;20181;-64
2023/05/25 06:29:30;;;;;;;10.52;8.80;;;;;;;16.82;72.79;94998.41;5074443;28;20270;-64
2023/05/25 06:31:58;;;;;;;9.25;8.45;;;;;;;16.90;72.93;94995.63;5074343;28;20244;-64
2023/05/25 06:34:27;;;;;;;8.88;7.88;;;;;;;16.95;72.00;94995.22;5074556;28;20270;-63
2023/05/25 06:36:55;;;;;;;9.35;8.63;;;;;;;17.00;72.42;94992.88;5073870;28;20196;-63
2023/05/25 06:39:25;;;;;;;9.30;8.48;;;;;;;17.05;72.23;94988.88;5074569;28;20638;-63
2023/05/25 06:41:54;;;;;;;8.75;7.95;;;;;;;17.09;72.48;94990.47;5074771;28;20196;-63
2023/05/25 06:44:24;;;;;;;8.20;7.50;;;;;;;17.16;72.76;95000.84;5074671;28;20185;-63
2023/05/25 06:46:52;;;;;;;7.60;7.00;;;;;;;17.22;72.61;94996.47;5073620;28;20193;-63
2023/05/25 06:49:20;;;;;;;8.27;7.57;;;;;;;17.27;72.24;94996.06;5074373;28;20216;-63
2023/05/25 06:51:49;;;;;;;8.05;7.22;;;;;;;17.31;72.05;94996.84;5073804;28;20213;-63
2023/05/25 06:54:20;;;;;;;8.90;7.88;;;;;;;17.37;72.13;94993.69;5076000;28;20185;-63
2023/05/25 06:56:49;;;;;;;8.35;7.55;;;;;;;17.43;72.27;94992.91;5077646;28;20208;-63
2023/05/25 06:59:20;;;;;;;8.65;7.45;;;;;;;17.51;72.40;95002.03;5077264;28;20225;-63
2023/05/25 07:01:48;;;;;;;8.80;7.90;;;;;;;17.57;71.85;95000.44;5077276;28;20201;-63
2023/05/25 07:04:17;;;;;;;7.93;7.13;;;;;;;17.63;71.62;94998.03;5077529;28;20196;-63
2023/05/25 07:06:47;;;;;;;8.32;7.53;;;;;;;17.70;71.81;94996.03;5077904;28;20181;-63
2023/05/25 07:09:16;;;;;;;8.40;7.47;;;;;;;17.80;72.12;94994.47;5076806;28;20204;-63
2023/05/25 07:11:47;;;;;;;8.55;7.82;;;;;;;17.86;71.51;94998.44;5060281;28;20275;-63
2023/05/25 07:14:20;;;;;;;8.60;7.90;;;;;;;17.93;71.43;94994.81;5076957;28;20193;-64
2023/05/25 07:16:48;;;;;;;8.88;7.63;;;;;;;17.97;71.53;94995.63;5077869;28;20203;-63
2023/05/25 07:19:16;;;;;;;8.00;7.22;;;;;;;18.06;70.79;94995.22;5076103;28;20247;-63
2023/05/25 07:21:44;;;;;;;7.38;6.57;;;;;;;18.10;70.25;94993.19;5076957;28;20193;-63
2023/05/25 07:24:12;;;;;;;7.40;6.57;;;;;;;18.17;70.23;94993.19;5077633;28;20200;-63
2023/05/25 07:26:44;;;;;;;7.10;6.40;;;;;;;18.21;69.46;94999.53;5076291;28;20204;-63
2023/05/25 07:29:12;;;;;;;7.15;6.47;;;;;;;18.18;69.42;95009.50;5076653;28;20205;-64
2023/05/25 07:31:45;;;;;;;7.13;6.53;;;;;;;18.13;69.48;95007.16;5076563;28;20243;-63
2023/05/25 07:34:15;;;;;;;7.55;6.95;;;;;;;18.09;69.55;95008.38;5077446;28;20178;-63
2023/05/25 07:36:43;;;;;;;7.05;6.35;;;;;;;18.04;69.73;95012.34;5076872;28;20196;-63
2023/05/25 07:39:11;;;;;;;8.07;6.22;;;;;;;18.03;69.94;95016.34;5077075;28;20229;-63
2023/05/25 07:41:40;;;;;;;7.70;6.10;;;;;;;18.07;70.21;95013.53;5077311;28;20239;-63
2023/05/25 07:44:08;;;;;;;6.82;6.05;;;;;;;18.13;69.88;95012.72;5076927;28;20594;-63
2023/05/25 07:46:39;;;;;;;6.38;5.80;;;;;;;18.18;69.42;95012.31;5076510;28;20223;-63
2023/05/25 07:49:12;;;;;;;5.88;5.28;;;;;;;18.17;68.34;95007.13;5076952;28;20262;-63
2023/05/25 07:51:43;;;;;;;6.22;5.45;;;;;;;18.18;67.60;95006.72;5077056;28;20195;-63
2023/05/25 07:54:11;;;;;;;5.35;4.85;;;;;;;18.18;66.45;95003.94;5077068;28;20189;-63
2023/05/25 07:56:41;;;;;;;4.70;4.22;;;;;;;18.16;65.61;95006.34;5076510;28;20216;-63
2023/05/25 07:59:11;;;;;;;4.80;4.50;;;;;;;18.16;66.60;95000.75;5076820;28;20274;-63
2023/05/25 08:01:39;;;;;;;5.18;4.78;;;;;;;18.15;66.73;95012.31;5075999;28;20201;-63
2023/05/25 08:04:06;;;;;;;5.68;5.10;;;;;;;18.14;67.16;95014.31;5076437;28;20270;-63
2023/05/25 08:06:38;;;;;;;5.57;5.07;;;;;;;18.14;67.07;95008.72;5076837;28;20198;-63
2023/05/25 08:09:06;;;;;;;5.70;5.20;;;;;;;18.13;67.00;95017.53;5076649;28;20185;-63
2023/05/25 08:11:38;;;;;;;6.28;5.68;;;;;;;18.11;66.94;95017.91;5076590;28;20203;-63
2023/05/25 08:14:08;;;;;;;5.43;4.43;;;;;;;18.09;66.60;95023.09;5076266;28;20282;-63
2023/05/25 08:16:35;;;;;;;5.85;4.75;;;;;;;18.08;67.15;95038.25;5075739;28;20196;-63
2023/05/25 08:19:03;;;;;;;5.57;5.07;;;;;;;18.08;67.01;95034.66;5076247;28;20249;-63
2023/05/25 08:21:33;;;;;;;5.13;4.72;;;;;;;18.04;66.11;95041.03;5076388;28;20189;-63
2023/05/25 08:24:08;;;;;;;5.18;4.18;;;;;;;17.98;65.97;95055.81;5075235;28;20742;-63
2023/05/25 08:26:39;;;;;;;5.10;4.60;;;;;;;17.85;66.27;95049.06;5076020;28;20193;-63
2023/05/25 08:29:06;;;;;;;5.80;4.05;;;;;;;17.76;65.60;95066.22;5075398;28;20201;-63
2023/05/25 08:31:33;;;;;;;10.52;9.52;;;;;;;17.65;65.56;95068.19;5076277;28;20238;-63
2023/05/25 08:34:03;;;;;;;7.28;6.30;;;;;;;17.56;65.65;95076.91;5075235;28;20220;-63
2023/05/25 08:36:32;;;;;;;6.70;6.10;;;;;;;17.49;66.49;95088.88;5075884;28;20177;-63
2023/05/25 08:39:00;;;;;;;8.32;7.15;;;;;;;17.42;66.76;95086.06;5076144;28;20320;-63
2023/05/25 08:41:35;;;;;;;8.48;6.38;;;;;;;17.37;67.89;95078.09;5075696;28;20513;-63
2023/05/25 08:44:06;;;;;;;6.65;5.93;;;;;;;17.34;68.42;95076.09;5075732;28;20208;-63
2023/05/25 08:46:35;;;;;;;6.50;5.32;;;;;;;17.24;69.56;95083.25;5075752;28;20231;-63
2023/05/25 08:49:11;;;;;;;5.78;5.15;;;;;;;17.20;69.70;95079.66;5075938;28;20197;-63
2023/05/25 08:51:43;;;;;;;5.88;4.90;;;;;;;17.12;70.21;95088.41;5074972;28;20691;-63
2023/05/25 08:54:13;;;;;;;5.07;4.57;;;;;;;17.08;69.68;95078.06;5075849;28;20282;-63
2023/05/25 08:56:49;;;;;;;5.30;4.80;;;;;;;17.08;69.59;95091.19;5075221;28;20200;-63
2023/05/25 08:59:31;;;;;;;4.63;4.22;;;;;;;17.02;69.98;95092.75;5075717;28;20227;-63
2023/05/25 09:02:08;;;;;;;5.15;4.75;;;;;;;16.91;70.40;95103.88;5075552;28;20203;-63
2023/05/25 09:04:39;;;;;;;5.15;4.20;;;;;;;16.88;70.32;95103.88;5075536;28;20207;-63
2023/05/25 09:07:08;;;;;;;4.70;4.35;;;;;;;16.85;70.52;95108.25;5074748;28;20193;-63
2023/05/25 09:09:38;;;;;;;5.63;4.95;;;;;;;16.82;71.19;95109.03;5074654;28;20250;-63
2023/05/25 09:12:16;;;;;;;4.88;4.47;;;;;;;16.78;70.84;95114.59;5074677;28;20203;-63
2023/05/25 09:14:47;;;;;;;5.82;4.35;;;;;;;16.72;70.93;95112.53;5075464;28;20196;-63
2023/05/25 09:17:19;;;;;;;5.45;4.22;;;;;;;16.68;71.42;95111.72;5074733;28;20185;-63
2023/05/25 09:19:48;;;;;;;5.18;4.38;;;;;;;16.68;71.58;95109.72;5074014;28;20232;-63
2023/05/25 09:22:16;;;;;;;5.45;4.93;;;;;;;16.65;71.89;95104.94;5075665;28;20204;-63
2023/05/25 09:24:45;;;;;;;5.50;4.85;;;;;;;16.64;72.61;95106.13;5074540;28;20258;-63
2023/05/25 09:27:18;;;;;;;5.00;4.60;;;;;;;16.62;73.42;95108.50;5074462;28;20573;-63
2023/05/25 09:29:48;;;;;;;5.72;4.75;;;;;;;16.56;74.63;95107.31;5074997;28;20185;-63
2023/05/25 09:32:16;;;;;;;5.80;4.82;;;;;;;16.56;75.53;95108.09;5074613;28;20193;-63
2023/05/25 09:34:47;;;;;;;5.60;5.07;;;;;;;16.57;76.34;95103.31;5074453;28;20254;-63
2023/05/25 09:37:18;;;;;;;5.20;4.70;;;;;;;16.57;76.36;95095.75;5075285;28;20224;-63
2023/05/25 09:39:46;;;;;;;4.88;4.25;;;;;;;16.56;76.31;95088.59;5074207;28;20216;-63
2023/05/25 09:42:17;;;;;;;4.60;4.18;;;;;;;16.57;77.58;95101.31;5075427;28;20224;-63
2023/05/25 09:44:48;;;;;;;4.50;4.10;;;;;;;16.60;78.81;95094.19;5075278;28;20272;-63
2023/05/25 09:47:17;;;;;;;5.13;4.28;;;;;;;16.59;78.76;95095.34;5074520;28;20219;-63
2023/05/25 09:49:46;;;;;;;4.63;4.22;;;;;;;16.57;78.95;95092.97;5074834;28;20177;-63
2023/05/25 09:52:14;;;;;;;4.78;4.15;;;;;;;16.57;78.88;95086.63;5074378;28;20205;-63
2023/05/25 09:54:45;;;;;;;4.95;4.45;;;;;;;16.61;79.07;95087.44;5075099;28;20196;-63
2023/05/25 09:57:19;;;;;;;6.20;4.75;;;;;;;16.68;79.26;95087.47;5074267;28;20197;-63
2023/05/25 09:59:47;;;;;;;5.72;5.22;;;;;;;16.75;81.33;95081.16;5074701;28;20278;-63
2023/05/25 10:02:17;;;;;;;5.72;5.10;;;;;;;16.81;81.66;95074.00;5074015;28;20193;-63
2023/05/25 10:04:47;;;;;;;5.22;4.80;;;;;;;16.87;81.21;95077.19;5075468;28;20540;-63
2023/05/25 10:07:16;;;;;;;5.57;5.07;;;;;;;16.92;80.80;95066.50;5074882;28;20250;-63
2023/05/25 10:09:46;;;;;;;5.13;4.63;;;;;;;17.00;81.04;95072.88;5074170;28;20190;-63
2023/05/25 10:12:18;;;;;;;5.35;4.85;;;;;;;17.04;80.80;95073.69;5074874;28;20297;-63
2023/05/25 10:14:46;;;;;;;4.97;4.47;;;;;;;17.07;80.46;95061.75;5075034;28;20189;-63
2023/05/25 10:17:14;;;;;;;5.38;4.97;;;;;;;17.16;80.09;95061.34;5074401;28;20212;-63
2023/05/25 10:19:49;;;;;;;5.57;4.95;;;;;;;17.22;79.80;95060.56;5075235;28;20310;-63
2023/05/25 10:22:24;;;;;;;5.43;5.00;;;;;;;17.26;78.52;95053.00;5073924;28;20200;-63
2023/05/25 10:24:58;;;;;;;5.22;4.82;;;;;;;17.31;78.63;95051.81;5074605;28;20181;-63
2023/05/25 10:27:34;;;;;;;4.82;4.43;;;;;;;17.36;77.44;95051.44;5074791;28;20189;-63
2023/05/25 10:30:04;;;;;;;5.15;4.70;;;;;;;17.40;77.10;95045.88;5078194;28;20185;-63
2023/05/25 10:32:33;;;;;;;5.40;4.90;;;;;;;17.44;77.92;95041.06;5078155;28;20197;-63
2023/05/25 10:35:02;;;;;;;4.45;4.05;;;;;;;17.47;77.71;95038.28;5077691;28;20201;-63
2023/05/25 10:37:31;;;;;;;5.10;4.70;;;;;;;17.51;76.60;95029.94;5078516;28;20262;-63
2023/05/25 10:40:00;;;;;;;5.25;4.85;;;;;;;17.52;76.85;95042.66;5078368;28;20219;-63
2023/05/25 10:42:35;;;;;;;5.03;4.63;;;;;;;17.49;76.85;95029.50;5077271;28;20638;-63
2023/05/25 10:45:05;;;;;;;5.18;4.72;;;;;;;17.42;75.78;95021.94;5078285;28;20189;-63
2023/05/25 10:47:33;;;;;;;5.10;4.70;;;;;;;17.43;75.69;95020.78;5077550;28;20193;-63
2023/05/25 10:50:02;;;;;;;5.43;4.93;;;;;;;17.46;75.17;95016.38;5078460;28;20189;-63
2023/05/25 10:52:32;;;;;;;5.15;4.78;;;;;;;17.48;74.39;95009.22;5078246;28;20189;-63
2023/05/25 10:55:03;;;;;;;4.90;4.50;;;;;;;17.45;72.93;95000.84;5078713;28;20186;-63
2023/05/25 10:57:32;;;;;;;5.00;4.60;;;;;;;17.44;74.29;94993.69;5077482;28;20197;-63
2023/05/25 11:00:07;;;;;;;5.30;4.80;;;;;;;17.40;73.38;94990.91;5077854;28;20209;-63
2023/05/25 11:02:49;;;;;;;4.82;4.30;;;;;;;17.38;71.35;95000.84;5077978;28;20535;-63
2023/05/25 11:05:43;;;;;;;5.28;4.65;;;;;;;17.33;71.72;94991.69;5077481;28;20616;-63
2023/05/25 11:08:16;;;;;;;4.05;3.75;;;;;;;17.35;72.08;94982.13;5058513;28;20205;-63
2023/05/25 11:10:55;;;;;;;5.05;4.65;;;;;;;17.38;73.66;94982.13;5078200;28;20185;-63
2023/05/25 11:13:40;;;;;;;5.03;4.63;;;;;;;17.44;73.87;94980.53;5077682;28;20201;-63
2023/05/25 11:16:21;;;;;;;5.22;4.35;;;;;;;17.52;74.64;94987.69;5077700;28;20193;-63
2023/05/25 11:18:53;;;;;;;5.38;4.88;;;;;;;17.57;75.92;94980.91;5077735;28;20263;-63
2023/05/25 11:21:45;;;;;;;4.30;4.00;;;;;;;17.62;76.01;94986.09;5077111;28;20274;-63
2023/05/25 11:24:15;;;;;;;5.32;4.35;;;;;;;17.62;73.20;94988.09;5070310;28;20271;-63
2023/05/25 11:27:01;;;;;;;5.13;3.95;;;;;;;17.66;72.87;94998.03;5077984;28;20321;-63
2023/05/25 11:29:36;;;;;;;4.72;4.43;;;;;;;17.72;73.85;94993.66;5077514;28;20193;-63
2023/05/25 11:32:04;;;;;;;5.55;5.05;;;;;;;17.77;74.79;94996.06;5077221;28;20527;-63
2023/05/25 11:34:32;;;;;;;5.78;4.05;;;;;;;17.79;73.88;94992.84;5077813;28;20177;-63
2023/05/25 11:37:05;;;;;;;4.00;3.70;;;;;;;17.78;73.41;94991.28;5077491;28;20508;-63
2023/05/25 11:39:32;;;;;;;4.75;4.25;;;;;;;17.79;74.42;94987.28;5075822;28;20217;-63
2023/05/25 11:42:03;;;;;;;4.78;3.92;;;;;;;17.78;74.67;94992.06;5076192;28;20200;-63
2023/05/25 11:44:35;;;;;;;4.13;3.72;;;;;;;17.77;73.96;94987.69;5076556;28;20205;-63
2023/05/25 11:47:12;;;;;;;4.78;4.28;;;;;;;17.79;73.81;94984.50;5076262;28;20291;-63
2023/05/25 11:49:45;;;;;;;4.72;4.32;;;;;;;17.82;74.17;94989.28;5077184;28;20285;-63
2023/05/25 11:52:14;;;;;;;4.47;4.10;;;;;;;17.85;74.21;94990.47;5077171;28;20200;-63
2023/05/25 11:54:43;;;;;;;4.43;4.03;;;;;;;17.92;74.51;94996.03;5076445;28;20197;-63
2023/05/25 11:57:20;;;;;;;4.53;4.00;;;;;;;17.99;74.36;94998.81;5076646;28;20213;-63